sensor_id;sensor_type;location;lat;lon;timestamp;temperature;humidity
52899;DHT22;38763;53.096;6.062;2023-08-12T00:01:49;19.60;99.90
52899;DHT22;38763;53.096;6.062;2023-08-12T00:04:14;19.60;99.90
52899;DHT22;38763;53.096;6.062;2023-08-12T00:06:42;19.60;99.90
52899;DHT22;38763;53.096;6.062;2023-08-12T00:09:08;19.60;99.90
52899;DHT22;38763;53.096;6.062;2023-08-12T00:11:37;19.60;99.90
52899;DHT22;38763;53.096;6.062;2023-08-12T00:14:02;19.70;99.90
52899;DHT22;38763;53.096;6.062;2023-08-12T00:16:28;19.70;99.90
52899;DHT22;38763;53.096;6.062;2023-08-12T00:18:54;19.70;99.90
52899;DHT22;38763;53.096;6.062;2023-08-12T00:21:19;19.60;99.90
52899;DHT22;38763;53.096;6.062;2023-08-12T00:23:45;19.60;99.90
52899;DHT22;38763;53.096;6.062;2023-08-12T00:26:13;19.60;99.90
52899;DHT22;38763;53.096;6.062;2023-08-12T00:28:39;19.60;99.90
52899;DHT22;38763;53.096;6.062;2023-08-12T00:31:04;19.60;99.90
52899;DHT22;38763;53.096;6.062;2023-08-12T00:33:30;19.60;99.90
52899;DHT22;38763;53.096;6.062;2023-08-12T00:35:56;19.60;99.90
52899;DHT22;38763;53.096;6.062;2023-08-12T00:38:21;19.60;99.90
52899;DHT22;38763;53.096;6.062;2023-08-12T00:40:48;19.60;99.90
52899;DHT22;38763;53.096;6.062;2023-08-12T00:43:14;19.50;99.90
52899;DHT22;38763;53.096;6.062;2023-08-12T00:45:40;19.50;99.90
52899;DHT22;38763;53.096;6.062;2023-08-12T00:48:08;19.50;99.90
52899;DHT22;38763;53.096;6.062;2023-08-12T00:50:35;19.50;99.90
52899;DHT22;38763;53.096;6.062;2023-08-12T00:53:01;19.40;99.90
52899;DHT22;38763;53.096;6.062;2023-08-12T00:55:26;19.40;99.90
52899;DHT22;38763;53.096;6.062;2023-08-12T00:57:52;19.40;99.90
52899;DHT22;38763;53.096;6.062;2023-08-12T01:00:19;19.40;99.90
52899;DHT22;38763;53.096;6.062;2023-08-12T01:02:46;19.40;99.90
52899;DHT22;38763;53.096;6.062;2023-08-12T01:05:14;19.40;99.90
52899;DHT22;38763;53.096;6.062;2023-08-12T01:07:41;19.30;99.90
52899;DHT22;38763;53.096;6.062;2023-08-12T01:10:07;19.40;99.90
52899;DHT22;38763;53.096;6.062;2023-08-12T01:12:41;19.40;99.90
52899;DHT22;38763;53.096;6.062;2023-08-12T01:15:19;19.30;99.90
52899;DHT22;38763;53.096;6.062;2023-08-12T01:17:47;19.30;99.90
52899;DHT22;38763;53.096;6.062;2023-08-12T01:20:19;19.30;99.90
52899;DHT22;38763;53.096;6.062;2023-08-12T01:22:56;19.20;99.90
52899;DHT22;38763;53.096;6.062;2023-08-12T01:25:25;19.20;99.90
52899;DHT22;38763;53.096;6.062;2023-08-12T01:27:51;19.20;99.90
52899;DHT22;38763;53.096;6.062;2023-08-12T01:30:18;19.20;99.90
52899;DHT22;38763;53.096;6.062;2023-08-12T01:33:38;19.10;99.90
52899;DHT22;38763;53.096;6.062;2023-08-12T01:35:50;19.10;99.90
52899;DHT22;38763;53.096;6.062;2023-08-12T01:38:19;19.10;99.90
52899;DHT22;38763;53.096;6.062;2023-08-12T01:40:47;19.00;99.90
52899;DHT22;38763;53.096;6.062;2023-08-12T01:43:13;19.00;99.90
52899;DHT22;38763;53.096;6.062;2023-08-12T01:45:41;19.00;99.90
52899;DHT22;38763;53.096;6.062;2023-08-12T01:48:07;19.00;99.90
52899;DHT22;38763;53.096;6.062;2023-08-12T01:50:32;19.00;99.90
52899;DHT22;38763;53.096;6.062;2023-08-12T01:52:58;18.90;99.90
52899;DHT22;38763;53.096;6.062;2023-08-12T01:55:24;18.90;99.90
52899;DHT22;38763;53.096;6.062;2023-08-12T01:57:49;19.00;99.90
52899;DHT22;38763;53.096;6.062;2023-08-12T02:00:15;19.00;99.90
52899;DHT22;38763;53.096;6.062;2023-08-12T02:02:41;19.00;99.90
52899;DHT22;38763;53.096;6.062;2023-08-12T02:05:07;19.00;99.90
52899;DHT22;38763;53.096;6.062;2023-08-12T02:07:33;19.00;99.90
52899;DHT22;38763;53.096;6.062;2023-08-12T02:09:58;19.00;99.90
52899;DHT22;38763;53.096;6.062;2023-08-12T02:12:24;19.00;99.90
52899;DHT22;38763;53.096;6.062;2023-08-12T02:14:50;19.00;99.90
52899;DHT22;38763;53.096;6.062;2023-08-12T02:17:15;19.00;99.90
52899;DHT22;38763;53.096;6.062;2023-08-12T02:19:41;19.00;99.90
52899;DHT22;38763;53.096;6.062;2023-08-12T02:22:07;19.00;99.90
52899;DHT22;38763;53.096;6.062;2023-08-12T02:24:32;19.00;99.90
52899;DHT22;38763;53.096;6.062;2023-08-12T02:26:58;19.00;99.90
52899;DHT22;38763;53.096;6.062;2023-08-12T02:29:23;19.00;99.90
52899;DHT22;38763;53.096;6.062;2023-08-12T02:31:49;19.00;99.90
52899;DHT22;38763;53.096;6.062;2023-08-12T02:34:15;19.00;99.90
52899;DHT22;38763;53.096;6.062;2023-08-12T02:36:40;19.00;99.90
52899;DHT22;38763;53.096;6.062;2023-08-12T02:39:06;19.00;99.90
52899;DHT22;38763;53.096;6.062;2023-08-12T02:41:31;19.00;99.90
52899;DHT22;38763;53.096;6.062;2023-08-12T02:43:57;19.00;99.90
52899;DHT22;38763;53.096;6.062;2023-08-12T02:46:23;19.00;99.90
52899;DHT22;38763;53.096;6.062;2023-08-12T02:48:51;19.00;99.90
52899;DHT22;38763;53.096;6.062;2023-08-12T02:51:16;19.00;99.90
52899;DHT22;38763;53.096;6.062;2023-08-12T02:53:42;19.00;99.90
52899;DHT22;38763;53.096;6.062;2023-08-12T02:56:07;19.00;99.90
52899;DHT22;38763;53.096;6.062;2023-08-12T02:58:33;19.00;99.90
52899;DHT22;38763;53.096;6.062;2023-08-12T03:00:59;19.00;99.90
52899;DHT22;38763;53.096;6.062;2023-08-12T03:03:25;19.00;99.90
52899;DHT22;38763;53.096;6.062;2023-08-12T03:05:51;19.00;99.90
52899;DHT22;38763;53.096;6.062;2023-08-12T03:08:16;19.10;99.90
52899;DHT22;38763;53.096;6.062;2023-08-12T03:10:42;19.00;99.90
52899;DHT22;38763;53.096;6.062;2023-08-12T03:13:08;19.00;99.90
52899;DHT22;38763;53.096;6.062;2023-08-12T03:15:34;19.00;99.90
52899;DHT22;38763;53.096;6.062;2023-08-12T03:17:59;19.10;99.90
52899;DHT22;38763;53.096;6.062;2023-08-12T03:20:25;19.00;99.90
52899;DHT22;38763;53.096;6.062;2023-08-12T03:22:51;19.10;99.90
52899;DHT22;38763;53.096;6.062;2023-08-12T03:25:16;19.10;99.90
52899;DHT22;38763;53.096;6.062;2023-08-12T03:27:42;19.00;99.90
52899;DHT22;38763;53.096;6.062;2023-08-12T03:30:08;19.10;99.90
52899;DHT22;38763;53.096;6.062;2023-08-12T03:32:34;19.10;99.90
52899;DHT22;38763;53.096;6.062;2023-08-12T03:35:00;19.10;99.90
52899;DHT22;38763;53.096;6.062;2023-08-12T03:37:26;19.10;99.90
52899;DHT22;38763;53.096;6.062;2023-08-12T03:39:52;19.10;99.90
52899;DHT22;38763;53.096;6.062;2023-08-12T03:42:17;19.10;99.90
52899;DHT22;38763;53.096;6.062;2023-08-12T03:44:44;19.10;99.90
52899;DHT22;38763;53.096;6.062;2023-08-12T03:47:10;19.20;99.90
52899;DHT22;38763;53.096;6.062;2023-08-12T03:49:36;19.20;99.90
52899;DHT22;38763;53.096;6.062;2023-08-12T03:52:01;19.10;99.90
52899;DHT22;38763;53.096;6.062;2023-08-12T03:54:27;19.20;99.90
52899;DHT22;38763;53.096;6.062;2023-08-12T03:56:53;19.10;99.90
52899;DHT22;38763;53.096;6.062;2023-08-12T03:59:19;19.10;99.90
52899;DHT22;38763;53.096;6.062;2023-08-12T04:01:45;19.10;99.90
52899;DHT22;38763;53.096;6.062;2023-08-12T04:04:10;19.10;99.90
52899;DHT22;38763;53.096;6.062;2023-08-12T04:06:37;19.10;99.90
52899;DHT22;38763;53.096;6.062;2023-08-12T04:09:02;19.10;99.90
52899;DHT22;38763;53.096;6.062;2023-08-12T04:11:28;19.10;99.90
52899;DHT22;38763;53.096;6.062;2023-08-12T04:13:54;19.10;99.90
52899;DHT22;38763;53.096;6.062;2023-08-12T04:16:19;19.10;99.90
52899;DHT22;38763;53.096;6.062;2023-08-12T04:18:45;19.10;99.90
52899;DHT22;38763;53.096;6.062;2023-08-12T04:21:11;19.10;99.90
52899;DHT22;38763;53.096;6.062;2023-08-12T04:23:36;19.10;99.90
52899;DHT22;38763;53.096;6.062;2023-08-12T04:26:02;19.10;99.90
52899;DHT22;38763;53.096;6.062;2023-08-12T04:28:27;19.20;99.90
52899;DHT22;38763;53.096;6.062;2023-08-12T04:30:53;19.20;99.90
52899;DHT22;38763;53.096;6.062;2023-08-12T04:33:19;19.20;99.90
52899;DHT22;38763;53.096;6.062;2023-08-12T04:35:47;19.20;99.90
52899;DHT22;38763;53.096;6.062;2023-08-12T04:38:13;19.20;99.90
52899;DHT22;38763;53.096;6.062;2023-08-12T04:40:39;19.20;99.90
52899;DHT22;38763;53.096;6.062;2023-08-12T04:43:05;19.20;99.90
52899;DHT22;38763;53.096;6.062;2023-08-12T04:45:31;19.20;99.90
52899;DHT22;38763;53.096;6.062;2023-08-12T04:47:57;19.20;99.90
52899;DHT22;38763;53.096;6.062;2023-08-12T04:50:23;19.20;99.90
52899;DHT22;38763;53.096;6.062;2023-08-12T04:52:49;19.20;99.90
52899;DHT22;38763;53.096;6.062;2023-08-12T04:55:15;19.20;99.90
52899;DHT22;38763;53.096;6.062;2023-08-12T04:57:40;19.20;99.90
52899;DHT22;38763;53.096;6.062;2023-08-12T05:00:06;19.20;99.90
52899;DHT22;38763;53.096;6.062;2023-08-12T05:02:34;19.20;99.90
52899;DHT22;38763;53.096;6.062;2023-08-12T05:04:59;19.30;99.90
52899;DHT22;38763;53.096;6.062;2023-08-12T05:07:26;19.30;99.90
52899;DHT22;38763;53.096;6.062;2023-08-12T05:09:52;19.30;99.90
52899;DHT22;38763;53.096;6.062;2023-08-12T05:12:17;19.30;99.90
52899;DHT22;38763;53.096;6.062;2023-08-12T05:14:43;19.30;99.90
52899;DHT22;38763;53.096;6.062;2023-08-12T05:17:09;19.40;99.90
52899;DHT22;38763;53.096;6.062;2023-08-12T05:19:34;19.40;99.90
52899;DHT22;38763;53.096;6.062;2023-08-12T05:22:00;19.50;99.90
52899;DHT22;38763;53.096;6.062;2023-08-12T05:24:26;19.50;99.90
52899;DHT22;38763;53.096;6.062;2023-08-12T05:26:51;19.60;99.90
52899;DHT22;38763;53.096;6.062;2023-08-12T05:29:17;19.60;99.90
52899;DHT22;38763;53.096;6.062;2023-08-12T05:31:43;19.60;99.90
52899;DHT22;38763;53.096;6.062;2023-08-12T05:34:08;19.70;99.90
52899;DHT22;38763;53.096;6.062;2023-08-12T05:36:35;19.70;99.90
52899;DHT22;38763;53.096;6.062;2023-08-12T05:39:00;19.70;99.90
52899;DHT22;38763;53.096;6.062;2023-08-12T05:41:26;19.70;99.90
52899;DHT22;38763;53.096;6.062;2023-08-12T05:43:52;19.80;99.90
52899;DHT22;38763;53.096;6.062;2023-08-12T05:46:17;19.80;99.90
52899;DHT22;38763;53.096;6.062;2023-08-12T05:48:43;19.80;99.90
52899;DHT22;38763;53.096;6.062;2023-08-12T05:51:08;19.80;99.90
52899;DHT22;38763;53.096;6.062;2023-08-12T05:53:34;19.70;99.90
52899;DHT22;38763;53.096;6.062;2023-08-12T05:56:00;19.80;99.90
52899;DHT22;38763;53.096;6.062;2023-08-12T05:58:25;19.80;99.90
52899;DHT22;38763;53.096;6.062;2023-08-12T06:00:51;19.80;99.90
52899;DHT22;38763;53.096;6.062;2023-08-12T06:03:17;19.90;99.90
52899;DHT22;38763;53.096;6.062;2023-08-12T06:05:45;19.90;99.90
52899;DHT22;38763;53.096;6.062;2023-08-12T06:08:12;19.90;99.90
52899;DHT22;38763;53.096;6.062;2023-08-12T06:10:38;19.90;99.90
52899;DHT22;38763;53.096;6.062;2023-08-12T06:13:04;19.90;99.90
52899;DHT22;38763;53.096;6.062;2023-08-12T06:15:29;19.90;99.90
52899;DHT22;38763;53.096;6.062;2023-08-12T06:17:55;19.90;99.90
52899;DHT22;38763;53.096;6.062;2023-08-12T06:20:21;19.90;99.90
52899;DHT22;38763;53.096;6.062;2023-08-12T06:22:46;19.90;99.90
52899;DHT22;38763;53.096;6.062;2023-08-12T06:25:12;20.00;99.90
52899;DHT22;38763;53.096;6.062;2023-08-12T06:27:38;20.00;99.90
52899;DHT22;38763;53.096;6.062;2023-08-12T06:30:04;20.00;99.90
52899;DHT22;38763;53.096;6.062;2023-08-12T06:32:30;20.00;99.90
52899;DHT22;38763;53.096;6.062;2023-08-12T06:34:56;20.10;99.90
52899;DHT22;38763;53.096;6.062;2023-08-12T06:37:21;20.10;99.90
52899;DHT22;38763;53.096;6.062;2023-08-12T06:39:47;20.10;99.90
52899;DHT22;38763;53.096;6.062;2023-08-12T06:42:13;20.10;99.90
52899;DHT22;38763;53.096;6.062;2023-08-12T06:44:38;20.10;99.90
52899;DHT22;38763;53.096;6.062;2023-08-12T06:47:04;20.20;99.90
52899;DHT22;38763;53.096;6.062;2023-08-12T06:49:30;20.20;99.90
52899;DHT22;38763;53.096;6.062;2023-08-12T06:51:55;20.20;99.90
52899;DHT22;38763;53.096;6.062;2023-08-12T06:54:21;20.20;99.90
52899;DHT22;38763;53.096;6.062;2023-08-12T06:56:48;20.30;99.90
52899;DHT22;38763;53.096;6.062;2023-08-12T06:59:14;20.30;99.90
52899;DHT22;38763;53.096;6.062;2023-08-12T07:01:40;20.30;99.90
52899;DHT22;38763;53.096;6.062;2023-08-12T07:04:06;20.30;99.90
52899;DHT22;38763;53.096;6.062;2023-08-12T07:06:31;20.40;99.90
52899;DHT22;38763;53.096;6.062;2023-08-12T07:08:57;20.40;99.90
52899;DHT22;38763;53.096;6.062;2023-08-12T07:11:23;20.40;99.90
52899;DHT22;38763;53.096;6.062;2023-08-12T07:13:48;20.40;99.90
52899;DHT22;38763;53.096;6.062;2023-08-12T07:16:14;20.40;99.90
52899;DHT22;38763;53.096;6.062;2023-08-12T07:18:39;20.40;99.90
52899;DHT22;38763;53.096;6.062;2023-08-12T07:21:05;20.30;99.90
52899;DHT22;38763;53.096;6.062;2023-08-12T07:23:31;20.40;99.90
52899;DHT22;38763;53.096;6.062;2023-08-12T07:25:56;20.30;99.90
52899;DHT22;38763;53.096;6.062;2023-08-12T07:28:22;20.40;99.90
52899;DHT22;38763;53.096;6.062;2023-08-12T07:30:49;20.50;99.90
52899;DHT22;38763;53.096;6.062;2023-08-12T07:33:15;20.50;99.90
52899;DHT22;38763;53.096;6.062;2023-08-12T07:35:40;20.40;99.90
52899;DHT22;38763;53.096;6.062;2023-08-12T07:38:06;20.50;99.90
52899;DHT22;38763;53.096;6.062;2023-08-12T07:40:32;20.50;99.90
52899;DHT22;38763;53.096;6.062;2023-08-12T07:42:58;20.50;99.90
52899;DHT22;38763;53.096;6.062;2023-08-12T07:45:24;20.50;99.90
52899;DHT22;38763;53.096;6.062;2023-08-12T07:47:50;20.50;99.90
52899;DHT22;38763;53.096;6.062;2023-08-12T07:50:16;20.60;99.90
52899;DHT22;38763;53.096;6.062;2023-08-12T07:52:42;20.60;99.90
52899;DHT22;38763;53.096;6.062;2023-08-12T07:55:07;20.50;99.90
52899;DHT22;38763;53.096;6.062;2023-08-12T07:57:33;20.50;99.90
52899;DHT22;38763;53.096;6.062;2023-08-12T07:59:59;20.60;99.90
52899;DHT22;38763;53.096;6.062;2023-08-12T08:02:24;20.60;99.90
52899;DHT22;38763;53.096;6.062;2023-08-12T08:04:50;20.60;99.90
52899;DHT22;38763;53.096;6.062;2023-08-12T08:07:16;20.50;99.90
52899;DHT22;38763;53.096;6.062;2023-08-12T08:09:43;20.50;99.90
52899;DHT22;38763;53.096;6.062;2023-08-12T08:12:09;20.50;99.90
52899;DHT22;38763;53.096;6.062;2023-08-12T08:14:36;20.50;99.90
52899;DHT22;38763;53.096;6.062;2023-08-12T08:17:01;20.50;99.90
52899;DHT22;38763;53.096;6.062;2023-08-12T08:19:27;20.40;99.90
52899;DHT22;38763;53.096;6.062;2023-08-12T08:21:53;20.40;99.90
52899;DHT22;38763;53.096;6.062;2023-08-12T08:24:18;20.40;99.90
52899;DHT22;38763;53.096;6.062;2023-08-12T08:26:44;20.40;99.90
52899;DHT22;38763;53.096;6.062;2023-08-12T08:29:12;20.40;99.90
52899;DHT22;38763;53.096;6.062;2023-08-12T08:31:38;20.30;99.90
52899;DHT22;38763;53.096;6.062;2023-08-12T08:34:04;20.30;99.90
52899;DHT22;38763;53.096;6.062;2023-08-12T08:36:30;20.30;99.90
52899;DHT22;38763;53.096;6.062;2023-08-12T08:38:55;20.30;99.90
52899;DHT22;38763;53.096;6.062;2023-08-12T08:41:21;20.30;99.90
52899;DHT22;38763;53.096;6.062;2023-08-12T08:43:48;20.40;99.90
52899;DHT22;38763;53.096;6.062;2023-08-12T08:46:17;20.40;99.90
52899;DHT22;38763;53.096;6.062;2023-08-12T08:48:43;20.50;99.90
52899;DHT22;38763;53.096;6.062;2023-08-12T08:51:10;20.50;99.90
52899;DHT22;38763;53.096;6.062;2023-08-12T08:53:40;20.60;99.90
52899;DHT22;38763;53.096;6.062;2023-08-12T08:56:07;20.60;99.90
52899;DHT22;38763;53.096;6.062;2023-08-12T08:58:33;20.60;99.90
52899;DHT22;38763;53.096;6.062;2023-08-12T09:01:00;20.70;99.90
52899;DHT22;38763;53.096;6.062;2023-08-12T09:03:27;20.70;99.90
52899;DHT22;38763;53.096;6.062;2023-08-12T09:05:54;20.60;99.90
52899;DHT22;38763;53.096;6.062;2023-08-12T09:08:22;20.60;99.90
52899;DHT22;38763;53.096;6.062;2023-08-12T09:10:48;20.70;99.90
52899;DHT22;38763;53.096;6.062;2023-08-12T09:13:14;20.60;99.90
52899;DHT22;38763;53.096;6.062;2023-08-12T09:15:40;20.60;99.90
52899;DHT22;38763;53.096;6.062;2023-08-12T09:18:06;20.50;99.90
52899;DHT22;38763;53.096;6.062;2023-08-12T09:20:33;20.40;99.90
52899;DHT22;38763;53.096;6.062;2023-08-12T09:22:59;20.50;99.90
52899;DHT22;38763;53.096;6.062;2023-08-12T09:25:29;20.50;99.90
52899;DHT22;38763;53.096;6.062;2023-08-12T09:27:55;20.50;99.90
52899;DHT22;38763;53.096;6.062;2023-08-12T09:30:23;20.40;99.90
52899;DHT22;38763;53.096;6.062;2023-08-12T09:33:00;20.40;99.90
52899;DHT22;38763;53.096;6.062;2023-08-12T09:35:35;20.40;99.90
52899;DHT22;38763;53.096;6.062;2023-08-12T09:38:03;20.40;99.90
52899;DHT22;38763;53.096;6.062;2023-08-12T09:40:31;20.40;99.90
52899;DHT22;38763;53.096;6.062;2023-08-12T09:42:57;20.40;99.90
52899;DHT22;38763;53.096;6.062;2023-08-12T09:45:26;20.40;99.90
52899;DHT22;38763;53.096;6.062;2023-08-12T09:47:55;20.40;99.90
52899;DHT22;38763;53.096;6.062;2023-08-12T09:50:22;20.50;99.90
52899;DHT22;38763;53.096;6.062;2023-08-12T09:52:49;20.60;99.90
52899;DHT22;38763;53.096;6.062;2023-08-12T09:55:19;20.50;99.90
52899;DHT22;38763;53.096;6.062;2023-08-12T09:57:48;20.60;99.90
52899;DHT22;38763;53.096;6.062;2023-08-12T10:00:15;20.60;99.90
52899;DHT22;38763;53.096;6.062;2023-08-12T10:02:46;20.60;99.90
52899;DHT22;38763;53.096;6.062;2023-08-12T10:05:17;20.60;99.90
52899;DHT22;38763;53.096;6.062;2023-08-12T10:07:44;20.70;99.90
52899;DHT22;38763;53.096;6.062;2023-08-12T10:10:11;20.70;99.90
52899;DHT22;38763;53.096;6.062;2023-08-12T10:12:38;20.60;99.90
52899;DHT22;38763;53.096;6.062;2023-08-12T10:15:08;20.60;99.90
52899;DHT22;38763;53.096;6.062;2023-08-12T10:17:34;20.60;99.90
52899;DHT22;38763;53.096;6.062;2023-08-12T10:20:03;20.60;99.90
52899;DHT22;38763;53.096;6.062;2023-08-12T10:22:30;20.60;99.90
52899;DHT22;38763;53.096;6.062;2023-08-12T10:24:58;20.70;99.90
52899;DHT22;38763;53.096;6.062;2023-08-12T10:27:25;20.70;99.90
52899;DHT22;38763;53.096;6.062;2023-08-12T10:29:51;20.70;99.90
52899;DHT22;38763;53.096;6.062;2023-08-12T10:32:16;20.80;99.90
52899;DHT22;38763;53.096;6.062;2023-08-12T10:34:42;20.60;99.90
52899;DHT22;38763;53.096;6.062;2023-08-12T10:37:09;20.60;99.90
52899;DHT22;38763;53.096;6.062;2023-08-12T10:39:36;20.10;99.90
52899;DHT22;38763;53.096;6.062;2023-08-12T10:42:02;19.80;99.90
52899;DHT22;38763;53.096;6.062;2023-08-12T10:44:49;19.30;99.90
52899;DHT22;38763;53.096;6.062;2023-08-12T10:47:19;19.00;99.90
52899;DHT22;38763;53.096;6.062;2023-08-12T10:49:49;18.80;99.90
52899;DHT22;38763;53.096;6.062;2023-08-12T10:52:32;18.60;99.90
52899;DHT22;38763;53.096;6.062;2023-08-12T10:55:19;18.40;99.90
52899;DHT22;38763;53.096;6.062;2023-08-12T10:57:45;18.30;99.90
52899;DHT22;38763;53.096;6.062;2023-08-12T11:00:18;18.20;99.90
52899;DHT22;38763;53.096;6.062;2023-08-12T11:02:52;18.10;99.90
52899;DHT22;38763;53.096;6.062;2023-08-12T11:05:18;18.20;99.90
52899;DHT22;38763;53.096;6.062;2023-08-12T11:07:59;18.40;99.90
52899;DHT22;38763;53.096;6.062;2023-08-12T11:10:29;18.50;99.90
52899;DHT22;38763;53.096;6.062;2023-08-12T11:12:57;18.60;99.90
52899;DHT22;38763;53.096;6.062;2023-08-12T11:15:37;18.70;99.90
52899;DHT22;38763;53.096;6.062;2023-08-12T11:18:08;18.60;99.90
52899;DHT22;38763;53.096;6.062;2023-08-12T11:20:34;18.60;99.90
52899;DHT22;38763;53.096;6.062;2023-08-12T11:23:01;18.70;99.90
52899;DHT22;38763;53.096;6.062;2023-08-12T11:25:31;18.90;99.90
52899;DHT22;38763;53.096;6.062;2023-08-12T11:27:57;18.80;99.90
52899;DHT22;38763;53.096;6.062;2023-08-12T11:30:23;18.80;99.90
52899;DHT22;38763;53.096;6.062;2023-08-12T11:32:54;18.90;99.90
52899;DHT22;38763;53.096;6.062;2023-08-12T11:35:22;19.00;99.90
52899;DHT22;38763;53.096;6.062;2023-08-12T11:37:50;18.70;99.90
52899;DHT22;38763;53.096;6.062;2023-08-12T11:40:17;18.90;99.90
52899;DHT22;38763;53.096;6.062;2023-08-12T11:42:44;18.90;99.90
52899;DHT22;38763;53.096;6.062;2023-08-12T11:45:11;19.00;99.90
52899;DHT22;38763;53.096;6.062;2023-08-12T11:47:39;19.10;99.90
52899;DHT22;38763;53.096;6.062;2023-08-12T11:50:06;19.10;99.90
52899;DHT22;38763;53.096;6.062;2023-08-12T11:52:32;19.20;99.90
52899;DHT22;38763;53.096;6.062;2023-08-12T11:54:58;19.20;99.90
52899;DHT22;38763;53.096;6.062;2023-08-12T11:57:24;19.30;99.90
52899;DHT22;38763;53.096;6.062;2023-08-12T11:59:51;19.30;99.90
52899;DHT22;38763;53.096;6.062;2023-08-12T12:02:16;19.40;99.90
52899;DHT22;38763;53.096;6.062;2023-08-12T12:04:42;19.50;99.90
52899;DHT22;38763;53.096;6.062;2023-08-12T12:07:38;19.70;99.90
52899;DHT22;38763;53.096;6.062;2023-08-12T12:10:04;19.90;99.90
52899;DHT22;38763;53.096;6.062;2023-08-12T12:12:36;19.90;99.90
52899;DHT22;38763;53.096;6.062;2023-08-12T12:15:03;20.10;99.90
52899;DHT22;38763;53.096;6.062;2023-08-12T12:17:29;20.30;99.90
52899;DHT22;38763;53.096;6.062;2023-08-12T12:19:56;20.30;99.90
52899;DHT22;38763;53.096;6.062;2023-08-12T12:22:29;20.40;99.90
52899;DHT22;38763;53.096;6.062;2023-08-12T12:24:57;20.50;99.90
52899;DHT22;38763;53.096;6.062;2023-08-12T12:27:24;20.60;99.90
52899;DHT22;38763;53.096;6.062;2023-08-12T12:29:50;20.70;99.90
52899;DHT22;38763;53.096;6.062;2023-08-12T12:32:18;20.80;99.90
52899;DHT22;38763;53.096;6.062;2023-08-12T12:34:45;21.10;99.90
52899;DHT22;38763;53.096;6.062;2023-08-12T12:37:10;21.20;99.90
52899;DHT22;38763;53.096;6.062;2023-08-12T12:39:36;21.30;99.90
52899;DHT22;38763;53.096;6.062;2023-08-12T12:42:02;21.30;99.90
52899;DHT22;38763;53.096;6.062;2023-08-12T12:44:27;21.30;99.90
52899;DHT22;38763;53.096;6.062;2023-08-12T12:46:53;21.30;99.90
52899;DHT22;38763;53.096;6.062;2023-08-12T12:49:19;21.40;99.90
52899;DHT22;38763;53.096;6.062;2023-08-12T12:51:45;21.30;99.90
52899;DHT22;38763;53.096;6.062;2023-08-12T12:54:11;21.40;99.90
52899;DHT22;38763;53.096;6.062;2023-08-12T12:56:36;21.40;99.90
52899;DHT22;38763;53.096;6.062;2023-08-12T12:59:02;21.40;99.90
52899;DHT22;38763;53.096;6.062;2023-08-12T13:01:28;21.50;99.90
52899;DHT22;38763;53.096;6.062;2023-08-12T13:03:53;21.50;99.90
52899;DHT22;38763;53.096;6.062;2023-08-12T13:06:19;21.50;99.90
52899;DHT22;38763;53.096;6.062;2023-08-12T13:08:44;21.50;99.90
52899;DHT22;38763;53.096;6.062;2023-08-12T13:11:10;21.40;99.90
52899;DHT22;38763;53.096;6.062;2023-08-12T13:13:36;21.50;99.90
52899;DHT22;38763;53.096;6.062;2023-08-12T13:16:01;21.60;99.90
52899;DHT22;38763;53.096;6.062;2023-08-12T13:18:27;21.60;99.90
52899;DHT22;38763;53.096;6.062;2023-08-12T13:20:53;21.60;99.90
52899;DHT22;38763;53.096;6.062;2023-08-12T13:23:19;21.60;99.90
52899;DHT22;38763;53.096;6.062;2023-08-12T13:25:44;21.70;99.90
52899;DHT22;38763;53.096;6.062;2023-08-12T13:28:10;21.80;99.90
52899;DHT22;38763;53.096;6.062;2023-08-12T13:30:36;21.80;99.90
52899;DHT22;38763;53.096;6.062;2023-08-12T13:33:03;21.80;99.90
52899;DHT22;38763;53.096;6.062;2023-08-12T13:35:28;21.90;99.90
52899;DHT22;38763;53.096;6.062;2023-08-12T13:37:54;21.90;99.90
52899;DHT22;38763;53.096;6.062;2023-08-12T13:40:20;21.90;99.90
52899;DHT22;38763;53.096;6.062;2023-08-12T13:42:46;21.90;99.90
52899;DHT22;38763;53.096;6.062;2023-08-12T13:45:13;21.90;99.90
52899;DHT22;38763;53.096;6.062;2023-08-12T13:47:38;21.90;99.90
52899;DHT22;38763;53.096;6.062;2023-08-12T13:50:05;21.90;99.90
52899;DHT22;38763;53.096;6.062;2023-08-12T13:52:31;21.80;99.90
52899;DHT22;38763;53.096;6.062;2023-08-12T13:54:56;21.50;99.90
52899;DHT22;38763;53.096;6.062;2023-08-12T13:57:22;21.40;99.90
52899;DHT22;38763;53.096;6.062;2023-08-12T13:59:48;21.30;99.90
52899;DHT22;38763;53.096;6.062;2023-08-12T14:02:14;21.40;99.90
52899;DHT22;38763;53.096;6.062;2023-08-12T14:04:40;21.40;99.90
52899;DHT22;38763;53.096;6.062;2023-08-12T14:07:05;21.40;99.90
52899;DHT22;38763;53.096;6.062;2023-08-12T14:09:31;21.60;99.90
52899;DHT22;38763;53.096;6.062;2023-08-12T14:11:57;21.70;99.90
52899;DHT22;38763;53.096;6.062;2023-08-12T14:14:24;21.80;99.90
52899;DHT22;38763;53.096;6.062;2023-08-12T14:16:53;21.80;99.90
52899;DHT22;38763;53.096;6.062;2023-08-12T14:19:18;21.70;99.90
52899;DHT22;38763;53.096;6.062;2023-08-12T14:21:44;21.70;99.90
52899;DHT22;38763;53.096;6.062;2023-08-12T14:24:10;21.60;99.90
52899;DHT22;38763;53.096;6.062;2023-08-12T14:26:36;21.60;99.90
52899;DHT22;38763;53.096;6.062;2023-08-12T14:29:01;21.60;99.90
52899;DHT22;38763;53.096;6.062;2023-08-12T14:31:27;21.70;99.90
52899;DHT22;38763;53.096;6.062;2023-08-12T14:33:53;21.70;99.90
52899;DHT22;38763;53.096;6.062;2023-08-12T14:36:18;21.80;99.90
52899;DHT22;38763;53.096;6.062;2023-08-12T14:38:44;21.80;99.90
52899;DHT22;38763;53.096;6.062;2023-08-12T14:41:09;21.90;99.90
52899;DHT22;38763;53.096;6.062;2023-08-12T14:43:35;21.90;99.90
52899;DHT22;38763;53.096;6.062;2023-08-12T14:46:02;22.00;99.90
52899;DHT22;38763;53.096;6.062;2023-08-12T14:48:28;22.00;99.90
52899;DHT22;38763;53.096;6.062;2023-08-12T14:50:55;22.10;99.90
52899;DHT22;38763;53.096;6.062;2023-08-12T14:53:21;22.10;99.90
52899;DHT22;38763;53.096;6.062;2023-08-12T14:55:46;22.10;99.90
52899;DHT22;38763;53.096;6.062;2023-08-12T14:58:12;22.10;99.90
52899;DHT22;38763;53.096;6.062;2023-08-12T15:00:38;22.10;99.90
52899;DHT22;38763;53.096;6.062;2023-08-12T15:03:03;22.00;99.90
52899;DHT22;38763;53.096;6.062;2023-08-12T15:05:29;22.10;99.90
52899;DHT22;38763;53.096;6.062;2023-08-12T15:07:55;22.20;99.90
52899;DHT22;38763;53.096;6.062;2023-08-12T15:10:21;22.20;99.90
52899;DHT22;38763;53.096;6.062;2023-08-12T15:12:46;22.30;99.90
52899;DHT22;38763;53.096;6.062;2023-08-12T15:15:12;22.30;99.90
52899;DHT22;38763;53.096;6.062;2023-08-12T15:17:38;22.30;99.90
52899;DHT22;38763;53.096;6.062;2023-08-12T15:20:04;22.30;99.90
52899;DHT22;38763;53.096;6.062;2023-08-12T15:22:31;22.20;99.90
52899;DHT22;38763;53.096;6.062;2023-08-12T15:24:57;22.10;99.90
52899;DHT22;38763;53.096;6.062;2023-08-12T15:27:23;22.10;99.90